sensor_id;sensor_type;location;lat;lon;timestamp;P1;durP1;ratioP1;P2;durP2;ratioP2
7057;SDS011;3570;43.080;25.628;2022-08-11T00:01:44;3.47;;;2.30;;
7057;SDS011;3570;43.080;25.628;2022-08-11T00:04:34;3.67;;;2.07;;
7057;SDS011;3570;43.080;25.628;2022-08-11T00:07:20;6.13;;;2.43;;
7057;SDS011;3570;43.080;25.628;2022-08-11T00:10:08;2.33;;;2.10;;
7057;SDS011;3570;43.080;25.628;2022-08-11T00:13:04;2.83;;;2.10;;
7057;SDS011;3570;43.080;25.628;2022-08-11T00:15:50;3.57;;;2.00;;
7057;SDS011;3570;43.080;25.628;2022-08-11T00:19:17;2.40;;;2.20;;
7057;SDS011;3570;43.080;25.628;2022-08-11T00:21:43;4.07;;;2.80;;
7057;SDS011;3570;43.080;25.628;2022-08-11T00:24:31;4.30;;;2.43;;
7057;SDS011;3570;43.080;25.628;2022-08-11T00:27:16;3.33;;;2.40;;
7057;SDS011;3570;43.080;25.628;2022-08-11T00:30:00;5.40;;;2.50;;
7057;SDS011;3570;43.080;25.628;2022-08-11T00:32:56;2.30;;;2.10;;
7057;SDS011;3570;43.080;25.628;2022-08-11T00:35:42;5.70;;;2.30;;
7057;SDS011;3570;43.080;25.628;2022-08-11T00:38:28;3.67;;;2.20;;
7057;SDS011;3570;43.080;25.628;2022-08-11T00:44:21;6.20;;;2.77;;
7057;SDS011;3570;43.080;25.628;2022-08-11T00:50:57;4.73;;;2.20;;
7057;SDS011;3570;43.080;25.628;2022-08-11T00:57:11;4.47;;;2.40;;
7057;SDS011;3570;43.080;25.628;2022-08-11T01:09:34;3.17;;;2.33;;
7057;SDS011;3570;43.080;25.628;2022-08-11T01:38:07;6.53;;;2.53;;
7057;SDS011;3570;43.080;25.628;2022-08-11T01:48:09;3.00;;;1.90;;
7057;SDS011;3570;43.080;25.628;2022-08-11T02:01:15;3.07;;;2.30;;
7057;SDS011;3570;43.080;25.628;2022-08-11T02:04:33;5.07;;;2.30;;
7057;SDS011;3570;43.080;25.628;2022-08-11T02:20:06;3.27;;;2.60;;
7057;SDS011;3570;43.080;25.628;2022-08-11T02:26:43;5.83;;;2.90;;
7057;SDS011;3570;43.080;25.628;2022-08-11T02:29:45;8.20;;;2.57;;
7057;SDS011;3570;43.080;25.628;2022-08-11T02:39:01;3.70;;;2.40;;
7057;SDS011;3570;43.080;25.628;2022-08-11T02:42:15;2.37;;;2.13;;
7057;SDS011;3570;43.080;25.628;2022-08-11T02:48:32;5.50;;;2.20;;
7057;SDS011;3570;43.080;25.628;2022-08-11T02:52:02;3.03;;;2.60;;
7057;SDS011;3570;43.080;25.628;2022-08-11T02:57:55;5.03;;;2.50;;
7057;SDS011;3570;43.080;25.628;2022-08-11T03:00:48;5.30;;;2.10;;
7057;SDS011;3570;43.080;25.628;2022-08-11T03:03:47;4.20;;;2.40;;
7057;SDS011;3570;43.080;25.628;2022-08-11T03:06:40;3.93;;;2.27;;
7057;SDS011;3570;43.080;25.628;2022-08-11T03:12:29;4.53;;;2.37;;
7057;SDS011;3570;43.080;25.628;2022-08-11T03:45:27;4.37;;;2.90;;
7057;SDS011;3570;43.080;25.628;2022-08-11T03:48:22;13.13;;;3.23;;
7057;SDS011;3570;43.080;25.628;2022-08-11T03:54:13;5.97;;;2.97;;
7057;SDS011;3570;43.080;25.628;2022-08-11T04:00:17;4.40;;;3.10;;
7057;SDS011;3570;43.080;25.628;2022-08-11T04:28:19;3.27;;;2.97;;
7057;SDS011;3570;43.080;25.628;2022-08-11T04:34:04;4.73;;;3.27;;
7057;SDS011;3570;43.080;25.628;2022-08-11T04:40:30;4.83;;;3.13;;
7057;SDS011;3570;43.080;25.628;2022-08-11T04:49:50;8.67;;;3.00;;
7057;SDS011;3570;43.080;25.628;2022-08-11T04:56:17;4.43;;;3.30;;
7057;SDS011;3570;43.080;25.628;2022-08-11T05:12:35;7.00;;;3.77;;
7057;SDS011;3570;43.080;25.628;2022-08-11T05:15:31;6.80;;;4.53;;
7057;SDS011;3570;43.080;25.628;2022-08-11T05:18:50;9.83;;;4.37;;
7057;SDS011;3570;43.080;25.628;2022-08-11T05:21:56;4.63;;;3.17;;
7057;SDS011;3570;43.080;25.628;2022-08-11T05:28:10;5.80;;;3.30;;
7057;SDS011;3570;43.080;25.628;2022-08-11T05:31:15;5.80;;;3.70;;
7057;SDS011;3570;43.080;25.628;2022-08-11T05:34:23;5.87;;;3.57;;
7057;SDS011;3570;43.080;25.628;2022-08-11T05:37:42;8.03;;;3.20;;
7057;SDS011;3570;43.080;25.628;2022-08-11T05:40:49;5.17;;;2.90;;
7057;SDS011;3570;43.080;25.628;2022-08-11T05:43:59;5.03;;;2.90;;
7057;SDS011;3570;43.080;25.628;2022-08-11T05:47:03;4.27;;;2.80;;
7057;SDS011;3570;43.080;25.628;2022-08-11T05:50:10;5.80;;;3.00;;
7057;SDS011;3570;43.080;25.628;2022-08-11T05:53:14;5.03;;;3.37;;
7057;SDS011;3570;43.080;25.628;2022-08-11T05:56:17;4.80;;;3.10;;
7057;SDS011;3570;43.080;25.628;2022-08-11T05:59:02;5.40;;;3.43;;
7057;SDS011;3570;43.080;25.628;2022-08-11T06:01:47;4.07;;;3.17;;
7057;SDS011;3570;43.080;25.628;2022-08-11T06:04:32;4.10;;;3.27;;
7057;SDS011;3570;43.080;25.628;2022-08-11T06:07:17;17.00;;;3.33;;
7057;SDS011;3570;43.080;25.628;2022-08-11T06:10:09;7.00;;;3.97;;
7057;SDS011;3570;43.080;25.628;2022-08-11T06:12:54;6.37;;;3.70;;
7057;SDS011;3570;43.080;25.628;2022-08-11T06:15:47;5.17;;;3.10;;
7057;SDS011;3570;43.080;25.628;2022-08-11T06:18:35;6.13;;;3.80;;
7057;SDS011;3570;43.080;25.628;2022-08-11T06:21:20;9.43;;;4.10;;
7057;SDS011;3570;43.080;25.628;2022-08-11T06:24:12;7.47;;;3.63;;
7057;SDS011;3570;43.080;25.628;2022-08-11T06:26:58;7.40;;;4.00;;
7057;SDS011;3570;43.080;25.628;2022-08-11T06:29:50;6.47;;;4.47;;
7057;SDS011;3570;43.080;25.628;2022-08-11T06:32:36;8.57;;;3.87;;
7057;SDS011;3570;43.080;25.628;2022-08-11T06:35:22;6.57;;;3.30;;
7057;SDS011;3570;43.080;25.628;2022-08-11T06:44:32;6.17;;;3.93;;
7057;SDS011;3570;43.080;25.628;2022-08-11T06:47:25;5.60;;;3.00;;
7057;SDS011;3570;43.080;25.628;2022-08-11T06:50:11;3.70;;;3.20;;
7057;SDS011;3570;43.080;25.628;2022-08-11T06:53:19;5.57;;;3.43;;
7057;SDS011;3570;43.080;25.628;2022-08-11T06:56:04;3.13;;;2.80;;
7057;SDS011;3570;43.080;25.628;2022-08-11T06:59:09;7.20;;;3.30;;
7057;SDS011;3570;43.080;25.628;2022-08-11T07:02:32;9.03;;;3.40;;
7057;SDS011;3570;43.080;25.628;2022-08-11T07:05:21;4.83;;;3.57;;
7057;SDS011;3570;43.080;25.628;2022-08-11T07:22:23;3.67;;;2.97;;
7057;SDS011;3570;43.080;25.628;2022-08-11T07:25:30;6.67;;;3.43;;
7057;SDS011;3570;43.080;25.628;2022-08-11T07:28:44;9.33;;;3.50;;
7057;SDS011;3570;43.080;25.628;2022-08-11T07:31:57;4.90;;;3.20;;
7057;SDS011;3570;43.080;25.628;2022-08-11T07:34:57;4.63;;;3.27;;
7057;SDS011;3570;43.080;25.628;2022-08-11T07:37:52;6.17;;;3.13;;
7057;SDS011;3570;43.080;25.628;2022-08-11T07:40:40;5.97;;;3.10;;
7057;SDS011;3570;43.080;25.628;2022-08-11T07:43:26;5.93;;;3.27;;
7057;SDS011;3570;43.080;25.628;2022-08-11T07:46:11;4.87;;;3.20;;
7057;SDS011;3570;43.080;25.628;2022-08-11T07:49:13;5.87;;;3.20;;
7057;SDS011;3570;43.080;25.628;2022-08-11T07:52:17;5.57;;;3.30;;
7057;SDS011;3570;43.080;25.628;2022-08-11T07:55:15;7.17;;;3.23;;
7057;SDS011;3570;43.080;25.628;2022-08-11T07:58:00;5.87;;;2.90;;
7057;SDS011;3570;43.080;25.628;2022-08-11T08:01:04;5.07;;;3.20;;
7057;SDS011;3570;43.080;25.628;2022-08-11T08:04:08;4.83;;;3.50;;
7057;SDS011;3570;43.080;25.628;2022-08-11T08:07:14;10.30;;;3.70;;
7057;SDS011;3570;43.080;25.628;2022-08-11T08:10:22;4.80;;;3.35;;
7057;SDS011;3570;43.080;25.628;2022-08-11T08:13:25;5.80;;;3.40;;
7057;SDS011;3570;43.080;25.628;2022-08-11T08:16:28;3.77;;;2.70;;
7057;SDS011;3570;43.080;25.628;2022-08-11T08:19:32;5.90;;;3.07;;
7057;SDS011;3570;43.080;25.628;2022-08-11T08:22:17;3.50;;;2.90;;
7057;SDS011;3570;43.080;25.628;2022-08-11T08:25:03;5.38;;;2.85;;
7057;SDS011;3570;43.080;25.628;2022-08-11T08:27:50;8.98;;;2.80;;
7057;SDS011;3570;43.080;25.628;2022-08-11T08:30:35;8.65;;;3.65;;
7057;SDS011;3570;43.080;25.628;2022-08-11T08:33:38;4.28;;;2.83;;
7057;SDS011;3570;43.080;25.628;2022-08-11T08:36:25;6.82;;;3.38;;
7057;SDS011;3570;43.080;25.628;2022-08-11T08:39:09;10.13;;;3.33;;
7057;SDS011;3570;43.080;25.628;2022-08-11T08:41:56;5.78;;;2.83;;
7057;SDS011;3570;43.080;25.628;2022-08-11T08:44:44;7.40;;;3.35;;
7057;SDS011;3570;43.080;25.628;2022-08-11T08:47:55;4.25;;;2.50;;
7057;SDS011;3570;43.080;25.628;2022-08-11T08:50:44;5.63;;;2.97;;
7057;SDS011;3570;43.080;25.628;2022-08-11T08:53:52;11.57;;;3.10;;
7057;SDS011;3570;43.080;25.628;2022-08-11T08:56:38;5.00;;;2.60;;
7057;SDS011;3570;43.080;25.628;2022-08-11T08:59:25;5.03;;;3.10;;
7057;SDS011;3570;43.080;25.628;2022-08-11T09:02:10;5.38;;;2.72;;
7057;SDS011;3570;43.080;25.628;2022-08-11T09:04:55;6.93;;;3.08;;
7057;SDS011;3570;43.080;25.628;2022-08-11T09:07:41;6.75;;;2.90;;
7057;SDS011;3570;43.080;25.628;2022-08-11T09:10:30;6.15;;;2.80;;
7057;SDS011;3570;43.080;25.628;2022-08-11T09:13:15;4.82;;;2.90;;
7057;SDS011;3570;43.080;25.628;2022-08-11T09:15:59;6.30;;;3.40;;
7057;SDS011;3570;43.080;25.628;2022-08-11T09:18:45;6.07;;;2.90;;
7057;SDS011;3570;43.080;25.628;2022-08-11T09:21:29;4.43;;;2.78;;
7057;SDS011;3570;43.080;25.628;2022-08-11T09:24:15;3.00;;;2.60;;
7057;SDS011;3570;43.080;25.628;2022-08-11T09:27:19;8.15;;;3.05;;
7057;SDS011;3570;43.080;25.628;2022-08-11T09:30:05;3.10;;;2.80;;
7057;SDS011;3570;43.080;25.628;2022-08-11T09:32:55;2.72;;;2.50;;
7057;SDS011;3570;43.080;25.628;2022-08-11T09:35:42;4.45;;;3.03;;
7057;SDS011;3570;43.080;25.628;2022-08-11T09:38:29;6.25;;;3.92;;
7057;SDS011;3570;43.080;25.628;2022-08-11T09:41:32;3.88;;;3.00;;
7057;SDS011;3570;43.080;25.628;2022-08-11T09:44:17;4.03;;;2.67;;
7057;SDS011;3570;43.080;25.628;2022-08-11T09:47:22;3.85;;;2.58;;
7057;SDS011;3570;43.080;25.628;2022-08-11T09:50:10;3.50;;;2.40;;
7057;SDS011;3570;43.080;25.628;2022-08-11T09:52:59;4.13;;;2.70;;
7057;SDS011;3570;43.080;25.628;2022-08-11T09:55:48;4.03;;;2.92;;
7057;SDS011;3570;43.080;25.628;2022-08-11T09:58:34;4.05;;;2.70;;
7057;SDS011;3570;43.080;25.628;2022-08-11T10:01:19;3.95;;;2.80;;
7057;SDS011;3570;43.080;25.628;2022-08-11T10:04:13;2.17;;;2.00;;
7057;SDS011;3570;43.080;25.628;2022-08-11T10:07:05;5.00;;;2.55;;
7057;SDS011;3570;43.080;25.628;2022-08-11T10:09:55;5.25;;;2.55;;
7057;SDS011;3570;43.080;25.628;2022-08-11T10:12:46;5.88;;;2.08;;
7057;SDS011;3570;43.080;25.628;2022-08-11T10:15:33;3.83;;;2.33;;
7057;SDS011;3570;43.080;25.628;2022-08-11T10:18:29;3.35;;;2.13;;
7057;SDS011;3570;43.080;25.628;2022-08-11T10:21:42;4.97;;;3.17;;
7057;SDS011;3570;43.080;25.628;2022-08-11T10:24:50;2.55;;;2.35;;
7057;SDS011;3570;43.080;25.628;2022-08-11T10:28:13;3.80;;;3.25;;
7057;SDS011;3570;43.080;25.628;2022-08-11T10:30:58;6.78;;;2.70;;
7057;SDS011;3570;43.080;25.628;2022-08-11T10:34:02;4.95;;;2.42;;
7057;SDS011;3570;43.080;25.628;2022-08-11T10:36:46;2.50;;;2.30;;
7057;SDS011;3570;43.080;25.628;2022-08-11T10:39:31;7.68;;;2.50;;
7057;SDS011;3570;43.080;25.628;2022-08-11T10:42:16;2.53;;;2.33;;
7057;SDS011;3570;43.080;25.628;2022-08-11T10:45:19;3.15;;;2.47;;
7057;SDS011;3570;43.080;25.628;2022-08-11T10:48:24;5.88;;;2.35;;
7057;SDS011;3570;43.080;25.628;2022-08-11T10:51:09;4.75;;;2.35;;
7057;SDS011;3570;43.080;25.628;2022-08-11T10:53:56;3.10;;;2.20;;
7057;SDS011;3570;43.080;25.628;2022-08-11T10:57:00;2.88;;;2.58;;
7057;SDS011;3570;43.080;25.628;2022-08-11T11:00:04;3.17;;;2.65;;
7057;SDS011;3570;43.080;25.628;2022-08-11T11:02:49;3.15;;;2.45;;
7057;SDS011;3570;43.080;25.628;2022-08-11T11:05:35;3.15;;;2.35;;
7057;SDS011;3570;43.080;25.628;2022-08-11T11:08:22;6.57;;;2.95;;
7057;SDS011;3570;43.080;25.628;2022-08-11T11:11:32;4.15;;;2.60;;
7057;SDS011;3570;43.080;25.628;2022-08-11T11:14:39;2.15;;;2.05;;
7057;SDS011;3570;43.080;25.628;2022-08-11T11:17:45;3.47;;;3.17;;
7057;SDS011;3570;43.080;25.628;2022-08-11T11:20:52;4.55;;;2.45;;
7057;SDS011;3570;43.080;25.628;2022-08-11T11:23:42;4.25;;;2.35;;
7057;SDS011;3570;43.080;25.628;2022-08-11T11:26:33;3.85;;;2.28;;
7057;SDS011;3570;43.080;25.628;2022-08-11T11:33:06;5.82;;;2.40;;
7057;SDS011;3570;43.080;25.628;2022-08-11T11:38:52;4.20;;;2.28;;
7057;SDS011;3570;43.080;25.628;2022-08-11T11:41:38;2.60;;;2.40;;
7057;SDS011;3570;43.080;25.628;2022-08-11T11:44:25;4.28;;;2.45;;
7057;SDS011;3570;43.080;25.628;2022-08-11T11:47:11;3.08;;;2.60;;
7057;SDS011;3570;43.080;25.628;2022-08-11T11:49:55;2.40;;;2.20;;
7057;SDS011;3570;43.080;25.628;2022-08-11T11:52:40;4.78;;;2.70;;
7057;SDS011;3570;43.080;25.628;2022-08-11T11:55:26;5.03;;;2.83;;
7057;SDS011;3570;43.080;25.628;2022-08-11T11:58:12;2.40;;;2.13;;
7057;SDS011;3570;43.080;25.628;2022-08-11T12:01:15;4.28;;;2.42;;
7057;SDS011;3570;43.080;25.628;2022-08-11T12:04:00;3.60;;;2.50;;
7057;SDS011;3570;43.080;25.628;2022-08-11T12:06:48;2.60;;;2.40;;
7057;SDS011;3570;43.080;25.628;2022-08-11T12:09:35;5.05;;;2.95;;
7057;SDS011;3570;43.080;25.628;2022-08-11T12:12:19;4.68;;;4.10;;
7057;SDS011;3570;43.080;25.628;2022-08-11T12:15:24;7.25;;;3.80;;
7057;SDS011;3570;43.080;25.628;2022-08-11T12:18:08;4.10;;;3.35;;
7057;SDS011;3570;43.080;25.628;2022-08-11T12:20:53;2.78;;;2.42;;
7057;SDS011;3570;43.080;25.628;2022-08-11T12:23:38;3.90;;;2.53;;
7057;SDS011;3570;43.080;25.628;2022-08-11T12:26:41;4.22;;;2.72;;
7057;SDS011;3570;43.080;25.628;2022-08-11T12:29:32;4.13;;;2.40;;
7057;SDS011;3570;43.080;25.628;2022-08-11T12:32:18;2.90;;;2.60;;
7057;SDS011;3570;43.080;25.628;2022-08-11T12:35:04;5.97;;;2.90;;
7057;SDS011;3570;43.080;25.628;2022-08-11T12:37:50;2.83;;;2.50;;
7057;SDS011;3570;43.080;25.628;2022-08-11T12:40:44;4.90;;;2.30;;
7057;SDS011;3570;43.080;25.628;2022-08-11T12:43:49;3.08;;;2.50;;
7057;SDS011;3570;43.080;25.628;2022-08-11T12:46:53;3.65;;;2.90;;
7057;SDS011;3570;43.080;25.628;2022-08-11T12:49:41;3.40;;;3.00;;
7057;SDS011;3570;43.080;25.628;2022-08-11T12:52:48;2.70;;;2.50;;
7057;SDS011;3570;43.080;25.628;2022-08-11T12:55:36;6.95;;;5.70;;
7057;SDS011;3570;43.080;25.628;2022-08-11T12:58:42;8.02;;;3.42;;
7057;SDS011;3570;43.080;25.628;2022-08-11T13:01:27;3.10;;;2.58;;
7057;SDS011;3570;43.080;25.628;2022-08-11T13:04:30;4.20;;;2.60;;
7057;SDS011;3570;43.080;25.628;2022-08-11T13:07:33;3.97;;;2.50;;
7057;SDS011;3570;43.080;25.628;2022-08-11T13:10:20;6.32;;;2.72;;
7057;SDS011;3570;43.080;25.628;2022-08-11T13:13:23;3.55;;;2.55;;
7057;SDS011;3570;43.080;25.628;2022-08-11T13:16:08;5.13;;;2.10;;
7057;SDS011;3570;43.080;25.628;2022-08-11T13:18:54;3.20;;;2.60;;
7057;SDS011;3570;43.080;25.628;2022-08-11T13:21:40;7.07;;;3.58;;
7057;SDS011;3570;43.080;25.628;2022-08-11T13:24:24;6.47;;;2.63;;
7057;SDS011;3570;43.080;25.628;2022-08-11T13:27:09;7.47;;;2.90;;
7057;SDS011;3570;43.080;25.628;2022-08-11T13:29:54;3.67;;;2.90;;
7057;SDS011;3570;43.080;25.628;2022-08-11T13:32:59;4.55;;;3.05;;
7057;SDS011;3570;43.080;25.628;2022-08-11T13:35:44;4.13;;;2.28;;
7057;SDS011;3570;43.080;25.628;2022-08-11T13:38:32;3.60;;;2.67;;
7057;SDS011;3570;43.080;25.628;2022-08-11T13:41:16;3.13;;;2.72;;
7057;SDS011;3570;43.080;25.628;2022-08-11T13:44:19;4.63;;;2.90;;
7057;SDS011;3570;43.080;25.628;2022-08-11T13:47:05;5.00;;;3.25;;
7057;SDS011;3570;43.080;25.628;2022-08-11T13:49:51;5.57;;;2.95;;
7057;SDS011;3570;43.080;25.628;2022-08-11T13:52:36;5.60;;;2.50;;
7057;SDS011;3570;43.080;25.628;2022-08-11T13:55:24;4.95;;;4.32;;
7057;SDS011;3570;43.080;25.628;2022-08-11T13:58:11;3.90;;;3.53;;
7057;SDS011;3570;43.080;25.628;2022-08-11T14:00:57;3.78;;;2.85;;
7057;SDS011;3570;43.080;25.628;2022-08-11T14:03:42;3.05;;;2.47;;
7057;SDS011;3570;43.080;25.628;2022-08-11T14:06:28;3.65;;;2.88;;
7057;SDS011;3570;43.080;25.628;2022-08-11T14:09:13;2.80;;;2.60;;
7057;SDS011;3570;43.080;25.628;2022-08-11T14:12:14;2.45;;;2.22;;
7057;SDS011;3570;43.080;25.628;2022-08-11T14:15:33;4.03;;;2.28;;
7057;SDS011;3570;43.080;25.628;2022-08-11T14:18:19;3.38;;;2.47;;
7057;SDS011;3570;43.080;25.628;2022-08-11T14:21:06;6.07;;;2.45;;
7057;SDS011;3570;43.080;25.628;2022-08-11T14:24:13;3.55;;;2.63;;
7057;SDS011;3570;43.080;25.628;2022-08-11T14:27:00;3.00;;;2.70;;
7057;SDS011;3570;43.080;25.628;2022-08-11T14:29:45;3.92;;;2.50;;
7057;SDS011;3570;43.080;25.628;2022-08-11T14:32:30;2.85;;;2.55;;
7057;SDS011;3570;43.080;25.628;2022-08-11T14:35:15;3.28;;;2.60;;
7057;SDS011;3570;43.080;25.628;2022-08-11T14:37:59;4.53;;;2.03;;
7057;SDS011;3570;43.080;25.628;2022-08-11T14:40:46;2.95;;;2.20;;
7057;SDS011;3570;43.080;25.628;2022-08-11T14:43:51;2.08;;;1.95;;
7057;SDS011;3570;43.080;25.628;2022-08-11T14:46:57;5.45;;;2.47;;
7057;SDS011;3570;43.080;25.628;2022-08-11T14:49:50;4.47;;;2.28;;
7057;SDS011;3570;43.080;25.628;2022-08-11T14:52:38;4.40;;;2.67;;
7057;SDS011;3570;43.080;25.628;2022-08-11T14:55:37;4.95;;;2.45;;
7057;SDS011;3570;43.080;25.628;2022-08-11T14:58:42;6.53;;;2.40;;
7057;SDS011;3570;43.080;25.628;2022-08-11T15:01:27;2.80;;;2.20;;
7057;SDS011;3570;43.080;25.628;2022-08-11T15:04:30;2.95;;;2.25;;
7057;SDS011;3570;43.080;25.628;2022-08-11T15:07:14;2.58;;;2.33;;
7057;SDS011;3570;43.080;25.628;2022-08-11T15:10:00;3.78;;;2.17;;
7057;SDS011;3570;43.080;25.628;2022-08-11T15:12:46;2.78;;;2.20;;
7057;SDS011;3570;43.080;25.628;2022-08-11T15:15:32;2.53;;;2.15;;
7057;SDS011;3570;43.080;25.628;2022-08-11T15:18:35;3.22;;;2.20;;
7057;SDS011;3570;43.080;25.628;2022-08-11T15:21:20;6.70;;;2.47;;
7057;SDS011;3570;43.080;25.628;2022-08-11T15:24:23;4.10;;;2.08;;
7057;SDS011;3570;43.080;25.628;2022-08-11T15:27:08;3.35;;;2.00;;
7057;SDS011;3570;43.080;25.628;2022-08-11T15:30:15;2.25;;;2.05;;
7057;SDS011;3570;43.080;25.628;2022-08-11T15:33:18;2.20;;;2.00;;
7057;SDS011;3570;43.080;25.628;2022-08-11T15:36:21;5.80;;;1.95;;
7057;SDS011;3570;43.080;25.628;2022-08-11T15:39:27;2.53;;;2.03;;
7057;SDS011;3570;43.080;25.628;2022-08-11T15:42:17;3.90;;;2.25;;
7057;SDS011;3570;43.080;25.628;2022-08-11T15:45:21;2.35;;;2.13;;
7057;SDS011;3570;43.080;25.628;2022-08-11T15:51:24;2.78;;;2.10;;
7057;SDS011;3570;43.080;25.628;2022-08-11T15:54:16;7.45;;;2.22;;
7057;SDS011;3570;43.080;25.628;2022-08-11T15:57:02;5.22;;;2.42;;
7057;SDS011;3570;43.080;25.628;2022-08-11T15:59:48;3.13;;;2.20;;
7057;SDS011;3570;43.080;25.628;2022-08-11T16:02:51;5.07;;;2.20;;
7057;SDS011;3570;43.080;25.628;2022-08-11T16:05:39;2.17;;;1.98;;
7057;SDS011;3570;43.080;25.628;2022-08-11T16:08:26;3.58;;;2.47;;
7057;SDS011;3570;43.080;25.628;2022-08-11T16:11:11;2.75;;;2.45;;
7057;SDS011;3570;43.080;25.628;2022-08-11T16:13:56;2.70;;;2.30;;
7057;SDS011;3570;43.080;25.628;2022-08-11T16:17:02;2.95;;;2.28;;
7057;SDS011;3570;43.080;25.628;2022-08-11T16:19:50;8.27;;;2.65;;
7057;SDS011;3570;43.080;25.628;2022-08-11T16:22:35;6.03;;;2.70;;
7057;SDS011;3570;43.080;25.628;2022-08-11T16:25:24;3.92;;;2.40;;
7057;SDS011;3570;43.080;25.628;2022-08-11T16:28:11;3.72;;;2.40;;
7057;SDS011;3570;43.080;25.628;2022-08-11T16:30:56;3.05;;;2.28;;
7057;SDS011;3570;43.080;25.628;2022-08-11T16:33:40;2.50;;;2.08;;
7057;SDS011;3570;43.080;25.628;2022-08-11T16:36:25;3.13;;;2.30;;
7057;SDS011;3570;43.080;25.628;2022-08-11T16:39:30;2.97;;;2.25;;
7057;SDS011;3570;43.080;25.628;2022-08-11T16:42:14;4.85;;;2.33;;
7057;SDS011;3570;43.080;25.628;2022-08-11T16:45:17;4.93;;;2.40;;
7057;SDS011;3570;43.080;25.628;2022-08-11T16:48:21;8.45;;;2.80;;
7057;SDS011;3570;43.080;25.628;2022-08-11T16:51:07;4.32;;;2.80;;
7057;SDS011;3570;43.080;25.628;2022-08-11T16:53:54;5.07;;;2.42;;
7057;SDS011;3570;43.080;25.628;2022-08-11T16:59:38;4.72;;;3.22;;
7057;SDS011;3570;43.080;25.628;2022-08-11T17:02:23;10.40;;;2.97;;
7057;SDS011;3570;43.080;25.628;2022-08-11T17:05:31;9.63;;;2.95;;
7057;SDS011;3570;43.080;25.628;2022-08-11T17:08:46;6.70;;;3.38;;
7057;SDS011;3570;43.080;25.628;2022-08-11T17:11:53;4.88;;;4.20;;
7057;SDS011;3570;43.080;25.628;2022-08-11T17:14:59;6.07;;;2.88;;
7057;SDS011;3570;43.080;25.628;2022-08-11T17:17:45;4.70;;;3.15;;
7057;SDS011;3570;43.080;25.628;2022-08-11T17:20:30;5.00;;;3.20;;
7057;SDS011;3570;43.080;25.628;2022-08-11T17:23:16;4.20;;;3.50;;
7057;SDS011;3570;43.080;25.628;2022-08-11T17:26:26;4.20;;;3.23;;
7057;SDS011;3570;43.080;25.628;2022-08-11T17:29:37;8.43;;;4.70;;
7057;SDS011;3570;43.080;25.628;2022-08-11T17:35:37;8.90;;;3.90;;
7057;SDS011;3570;43.080;25.628;2022-08-11T17:38:24;3.57;;;3.27;;
7057;SDS011;3570;43.080;25.628;2022-08-11T17:41:11;7.87;;;4.67;;
7057;SDS011;3570;43.080;25.628;2022-08-11T17:44:14;5.33;;;3.60;;
7057;SDS011;3570;43.080;25.628;2022-08-11T17:47:17;7.57;;;4.10;;
7057;SDS011;3570;43.080;25.628;2022-08-11T17:50:21;6.03;;;4.23;;
7057;SDS011;3570;43.080;25.628;2022-08-11T17:53:05;4.83;;;3.90;;
7057;SDS011;3570;43.080;25.628;2022-08-11T17:56:09;4.70;;;3.63;;
7057;SDS011;3570;43.080;25.628;2022-08-11T17:59:14;5.33;;;3.80;;
7057;SDS011;3570;43.080;25.628;2022-08-11T18:02:21;5.43;;;3.43;;
7057;SDS011;3570;43.080;25.628;2022-08-11T18:05:31;5.80;;;4.20;;
7057;SDS011;3570;43.080;25.628;2022-08-11T18:08:17;8.53;;;4.00;;
7057;SDS011;3570;43.080;25.628;2022-08-11T18:11:23;5.77;;;3.90;;
7057;SDS011;3570;43.080;25.628;2022-08-11T18:14:27;5.77;;;3.87;;
7057;SDS011;3570;43.080;25.628;2022-08-11T18:17:32;4.40;;;3.73;;
7057;SDS011;3570;43.080;25.628;2022-08-11T18:20:37;4.67;;;4.10;;
7057;SDS011;3570;43.080;25.628;2022-08-11T18:23:40;5.27;;;4.10;;
7057;SDS011;3570;43.080;25.628;2022-08-11T18:26:43;6.50;;;4.10;;
7057;SDS011;3570;43.080;25.628;2022-08-11T18:29:48;4.77;;;3.97;;
7057;SDS011;3570;43.080;25.628;2022-08-11T18:32:53;7.37;;;4.67;;
7057;SDS011;3570;43.080;25.628;2022-08-11T18:36:02;4.43;;;3.70;;
7057;SDS011;3570;43.080;25.628;2022-08-11T18:39:07;5.13;;;3.33;;
7057;SDS011;3570;43.080;25.628;2022-08-11T18:42:13;4.30;;;3.90;;
7057;SDS011;3570;43.080;25.628;2022-08-11T18:45:18;4.97;;;3.77;;
7057;SDS011;3570;43.080;25.628;2022-08-11T18:48:22;7.47;;;3.57;;
7057;SDS011;3570;43.080;25.628;2022-08-11T18:51:26;5.80;;;3.80;;
7057;SDS011;3570;43.080;25.628;2022-08-11T18:54:29;7.60;;;4.00;;
7057;SDS011;3570;43.080;25.628;2022-08-11T18:57:34;8.07;;;3.80;;
7057;SDS011;3570;43.080;25.628;2022-08-11T19:00:41;8.93;;;3.90;;
7057;SDS011;3570;43.080;25.628;2022-08-11T19:03:47;7.73;;;4.10;;
7057;SDS011;3570;43.080;25.628;2022-08-11T19:06:52;5.87;;;3.63;;
7057;SDS011;3570;43.080;25.628;2022-08-11T19:09:58;5.90;;;3.47;;
7057;SDS011;3570;43.080;25.628;2022-08-11T19:13:01;8.47;;;3.67;;
7057;SDS011;3570;43.080;25.628;2022-08-11T19:16:04;7.73;;;3.63;;
7057;SDS011;3570;43.080;25.628;2022-08-11T19:19:08;5.17;;;3.57;;
7057;SDS011;3570;43.080;25.628;2022-08-11T19:22:12;4.77;;;3.60;;
7057;SDS011;3570;43.080;25.628;2022-08-11T19:25:18;7.43;;;3.87;;
7057;SDS011;3570;43.080;25.628;2022-08-11T19:28:23;5.73;;;3.40;;
7057;SDS011;3570;43.080;25.628;2022-08-11T19:31:26;9.83;;;4.10;;
7057;SDS011;3570;43.080;25.628;2022-08-11T19:34:30;11.63;;;3.37;;
7057;SDS011;3570;43.080;25.628;2022-08-11T19:37:35;10.10;;;3.83;;
7057;SDS011;3570;43.080;25.628;2022-08-11T19:40:40;5.17;;;3.40;;
7057;SDS011;3570;43.080;25.628;2022-08-11T19:43:44;5.70;;;3.80;;
7057;SDS011;3570;43.080;25.628;2022-08-11T19:46:49;7.53;;;3.47;;
7057;SDS011;3570;43.080;25.628;2022-08-11T19:49:53;7.93;;;3.97;;
7057;SDS011;3570;43.080;25.628;2022-08-11T19:52:57;5.13;;;3.50;;
7057;SDS011;3570;43.080;25.628;2022-08-11T19:56:02;4.83;;;3.87;;
7057;SDS011;3570;43.080;25.628;2022-08-11T19:59:07;5.23;;;3.83;;
7057;SDS011;3570;43.080;25.628;2022-08-11T20:02:11;4.50;;;3.93;;
7057;SDS011;3570;43.080;25.628;2022-08-11T20:05:14;7.60;;;3.53;;
7057;SDS011;3570;43.080;25.628;2022-08-11T20:08:17;8.40;;;4.47;;
7057;SDS011;3570;43.080;25.628;2022-08-11T20:11:22;8.87;;;4.40;;
7057;SDS011;3570;43.080;25.628;2022-08-11T20:14:27;10.17;;;4.47;;
7057;SDS011;3570;43.080;25.628;2022-08-11T20:17:34;4.90;;;4.40;;
7057;SDS011;3570;43.080;25.628;2022-08-11T20:20:38;10.97;;;4.27;;
7057;SDS011;3570;43.080;25.628;2022-08-11T20:23:42;11.10;;;4.67;;
7057;SDS011;3570;43.080;25.628;2022-08-11T20:26:47;13.97;;;4.67;;
7057;SDS011;3570;43.080;25.628;2022-08-11T20:29:51;8.13;;;4.23;;
7057;SDS011;3570;43.080;25.628;2022-08-11T20:32:55;8.20;;;4.93;;
7057;SDS011;3570;43.080;25.628;2022-08-11T20:35:59;9.37;;;4.20;;
7057;SDS011;3570;43.080;25.628;2022-08-11T20:39:02;7.40;;;4.17;;
7057;SDS011;3570;43.080;25.628;2022-08-11T20:42:07;7.17;;;4.30;;
7057;SDS011;3570;43.080;25.628;2022-08-11T20:45:12;9.77;;;4.17;;
7057;SDS011;3570;43.080;25.628;2022-08-11T20:48:16;6.60;;;4.33;;
7057;SDS011;3570;43.080;25.628;2022-08-11T20:51:22;5.67;;;3.70;;
7057;SDS011;3570;43.080;25.628;2022-08-11T20:54:25;4.70;;;3.70;;
7057;SDS011;3570;43.080;25.628;2022-08-11T20:57:28;7.27;;;4.13;;
7057;SDS011;3570;43.080;25.628;2022-08-11T21:00:33;10.53;;;3.90;;
7057;SDS011;3570;43.080;25.628;2022-08-11T21:03:37;9.40;;;3.80;;
7057;SDS011;3570;43.080;25.628;2022-08-11T21:06:40;11.83;;;4.20;;
7057;SDS011;3570;43.080;25.628;2022-08-11T21:09:45;8.80;;;4.10;;
7057;SDS011;3570;43.080;25.628;2022-08-11T21:12:49;6.60;;;3.90;;
7057;SDS011;3570;43.080;25.628;2022-08-11T21:15:54;4.00;;;3.60;;
7057;SDS011;3570;43.080;25.628;2022-08-11T21:19:15;5.93;;;3.70;;
7057;SDS011;3570;43.080;25.628;2022-08-11T21:22:25;5.40;;;3.60;;
7057;SDS011;3570;43.080;25.628;2022-08-11T21:25:33;7.03;;;3.87;;
7057;SDS011;3570;43.080;25.628;2022-08-11T21:28:40;7.40;;;3.60;;
7057;SDS011;3570;43.080;25.628;2022-08-11T21:31:44;5.40;;;3.60;;
7057;SDS011;3570;43.080;25.628;2022-08-11T21:34:48;8.43;;;3.83;;
7057;SDS011;3570;43.080;25.628;2022-08-11T21:37:52;4.53;;;3.50;;
7057;SDS011;3570;43.080;25.628;2022-08-11T21:40:55;5.70;;;3.43;;